Time;durP1;ratioP1;P1;durP2;ratioP2;P2;SDS_P1;SDS_P2;PMS_P1;PMS_P2;Temp;Humidity;BMP_temperature;BMP_pressure;BME280_temperature;BME280_humidity;BME280_pressure;Samples;Min_cycle;Max_cycle;Signal;HPM_P1;HPM_P2
2021/10/10 00:01:25;;;;;;;30.15;21.40;;;;;;;;;;5093510;28;20196;-74
2021/10/10 00:03:52;;;;;;;35.72;20.83;;;;;;;;;;5094010;28;20234;-74
2021/10/10 00:06:20;;;;;;;26.42;19.42;;;;;;;;;;5093444;28;20289;-74
2021/10/10 00:08:47;;;;;;;30.02;20.42;;;;;;;;;;5094014;28;20219;-74
2021/10/10 00:11:14;;;;;;;29.20;21.27;;;;;;;;;;5093690;28;20224;-74
2021/10/10 00:13:41;;;;;;;24.30;19.20;;;;;;;;;;5093710;28;20283;-73
2021/10/10 00:16:10;;;;;;;26.43;20.30;;;;;;;;;;5093508;28;20334;-74
2021/10/10 00:18:37;;;;;;;26.63;19.75;;;;;;;;;;5093634;28;20436;-74
2021/10/10 00:21:04;;;;;;;27.30;19.37;;;;;;;;;;5093737;28;20197;-73
2021/10/10 00:23:32;;;;;;;25.83;18.85;;;;;;;;;;5093295;28;20947;-75
2021/10/10 00:25:59;;;;;;;32.10;19.67;;;;;;;;;;5093453;28;20718;-74
2021/10/10 00:28:26;;;;;;;29.15;19.27;;;;;;;;;;5093673;28;20294;-74
2021/10/10 00:30:55;;;;;;;28.80;18.95;;;;;;;;;;5097588;28;20555;-75
2021/10/10 00:33:23;;;;;;;23.77;19.88;;;;;;;;;;5097479;28;20202;-75
2021/10/10 00:35:51;;;;;;;26.30;19.33;;;;;;;;;;5097285;28;20310;-75
2021/10/10 00:38:18;;;;;;;31.75;21.25;;;;;;;;;;5097652;28;20196;-74
2021/10/10 00:40:45;;;;;;;24.73;17.98;;;;;;;;;;5097443;28;20306;-75
2021/10/10 00:43:13;;;;;;;22.65;18.40;;;;;;;;;;5097742;28;20195;-75
2021/10/10 00:45:40;;;;;;;25.35;19.92;;;;;;;;;;5097465;28;20291;-74
2021/10/10 00:48:08;;;;;;;28.25;19.08;;;;;;;;;;5097463;28;20283;-75
2021/10/10 00:50:36;;;;;;;28.92;19.63;;;;;;;;;;5097413;28;20196;-74
2021/10/10 00:53:03;;;;;;;24.77;18.92;;;;;;;;;;5096996;28;20196;-74
2021/10/10 00:55:31;;;;;;;24.90;17.98;;;;;;;;;;5096914;28;20249;-74
2021/10/10 00:57:58;;;;;;;25.42;17.90;;;;;;;;;;5097296;28;20222;-74
2021/10/10 01:00:25;;;;;;;27.03;19.40;;;;;;;;;;5097420;28;20202;-74
2021/10/10 01:02:57;;;;;;;29.23;18.33;;;;;;;;;;5097170;28;20482;-73
2021/10/10 01:05:24;;;;;;;27.73;18.30;;;;;;;;;;5097455;28;20433;-75
2021/10/10 01:07:53;;;;;;;26.67;19.63;;;;;;;;;;5096747;28;20195;-75
2021/10/10 01:10:21;;;;;;;27.65;19.85;;;;;;;;;;5096926;28;20668;-74
2021/10/10 01:12:48;;;;;;;27.63;18.90;;;;;;;;;;5096946;28;20197;-74
2021/10/10 01:15:15;;;;;;;23.17;19.00;;;;;;;;;;5096846;28;20283;-74
2021/10/10 01:17:43;;;;;;;23.05;17.52;;;;;;;;;;5096826;28;20203;-74
2021/10/10 01:20:11;;;;;;;29.58;19.30;;;;;;;;;;5096841;28;20196;-74
2021/10/10 01:22:40;;;;;;;30.38;19.35;;;;;;;;;;5096766;28;20650;-74
2021/10/10 01:25:07;;;;;;;30.00;20.33;;;;;;;;;;5096721;28;20195;-74
2021/10/10 01:27:35;;;;;;;27.20;19.17;;;;;;;;;;5096374;28;20289;-74
2021/10/10 01:30:02;;;;;;;24.63;19.60;;;;;;;;;;5096603;28;20230;-74
2021/10/10 01:32:29;;;;;;;28.08;20.08;;;;;;;;;;5096463;28;20290;-74
2021/10/10 01:34:57;;;;;;;31.50;20.98;;;;;;;;;;5096479;28;20205;-74
2021/10/10 01:37:25;;;;;;;34.58;19.98;;;;;;;;;;5096434;28;20313;-74
2021/10/10 01:39:53;;;;;;;26.65;20.40;;;;;;;;;;5096781;28;20248;-74
2021/10/10 01:42:21;;;;;;;27.10;19.83;;;;;;;;;;5095751;28;20280;-74
2021/10/10 01:44:48;;;;;;;40.17;21.88;;;;;;;;;;5096055;28;20199;-74
2021/10/10 01:47:15;;;;;;;22.75;19.08;;;;;;;;;;5096030;28;20206;-74
2021/10/10 01:49:42;;;;;;;28.70;20.67;;;;;;;;;;5095970;28;20191;-74
2021/10/10 01:52:10;;;;;;;27.70;19.73;;;;;;;;;;5096404;28;20662;-74
2021/10/10 01:54:37;;;;;;;26.02;18.15;;;;;;;;;;5096154;28;20282;-74
2021/10/10 01:57:06;;;;;;;23.88;18.73;;;;;;;;;;5095763;28;20255;-74
2021/10/10 01:59:33;;;;;;;26.95;20.15;;;;;;;;;;5095983;28;20196;-74
2021/10/10 02:02:00;;;;;;;28.30;19.30;;;;;;;;;;5095688;28;20213;-74
2021/10/10 02:04:27;;;;;;;27.08;20.05;;;;;;;;;;5095636;28;20709;-74
2021/10/10 02:06:55;;;;;;;25.33;20.77;;;;;;;;;;5095974;28;20193;-74
2021/10/10 02:09:22;;;;;;;32.28;21.63;;;;;;;;;;5095900;28;20558;-74
2021/10/10 02:11:49;;;;;;;33.22;22.23;;;;;;;;;;5095564;28;20231;-74
2021/10/10 02:14:18;;;;;;;33.60;23.77;;;;;;;;;;5096197;28;20191;-74
2021/10/10 02:16:45;;;;;;;35.88;23.70;;;;;;;;;;5095380;28;20225;-74
2021/10/10 02:19:12;;;;;;;35.70;23.85;;;;;;;;;;5095704;28;20195;-74
2021/10/10 02:21:39;;;;;;;39.60;24.42;;;;;;;;;;5095356;28;20678;-74
2021/10/10 02:24:06;;;;;;;31.50;23.83;;;;;;;;;;5095295;28;20236;-75
2021/10/10 02:26:34;;;;;;;38.13;25.35;;;;;;;;;;5095323;28;20192;-74
2021/10/10 02:29:01;;;;;;;33.10;23.50;;;;;;;;;;5095181;28;20192;-74
2021/10/10 02:31:29;;;;;;;36.22;24.67;;;;;;;;;;5095503;28;20196;-75
2021/10/10 02:33:57;;;;;;;37.90;27.20;;;;;;;;;;5095830;28;20625;-74
2021/10/10 02:36:24;;;;;;;37.50;27.80;;;;;;;;;;5095354;28;20265;-74
2021/10/10 02:38:51;;;;;;;37.90;27.08;;;;;;;;;;5095029;28;20647;-74
2021/10/10 02:41:18;;;;;;;34.78;26.95;;;;;;;;;;5095258;28;20283;-74
2021/10/10 02:43:45;;;;;;;40.20;26.13;;;;;;;;;;5094878;28;20203;-74
2021/10/10 02:46:13;;;;;;;38.35;26.35;;;;;;;;;;5094832;28;20653;-74
2021/10/10 02:48:41;;;;;;;39.70;27.05;;;;;;;;;;5094747;28;20253;-74
2021/10/10 02:51:08;;;;;;;37.20;26.20;;;;;;;;;;5095119;28;20230;-74
2021/10/10 02:53:36;;;;;;;43.55;27.83;;;;;;;;;;5095040;28;20290;-74
2021/10/10 02:56:03;;;;;;;40.25;27.50;;;;;;;;;;5094612;28;20202;-74
2021/10/10 02:58:30;;;;;;;39.05;25.40;;;;;;;;;;5095451;28;20287;-74
2021/10/10 03:00:58;;;;;;;40.63;28.20;;;;;;;;;;5094869;28;20198;-74
2021/10/10 03:03:25;;;;;;;36.28;26.30;;;;;;;;;;5095417;28;20227;-74
2021/10/10 03:05:53;;;;;;;36.33;25.42;;;;;;;;;;5094705;28;20199;-74
2021/10/10 03:08:21;;;;;;;32.53;25.30;;;;;;;;;;5094781;28;20196;-74
2021/10/10 03:10:48;;;;;;;40.55;27.80;;;;;;;;;;5094478;28;20231;-74
2021/10/10 03:13:15;;;;;;;37.83;27.10;;;;;;;;;;5094347;28;20195;-74
2021/10/10 03:15:42;;;;;;;37.97;27.27;;;;;;;;;;5094524;28;20666;-75
2021/10/10 03:18:09;;;;;;;42.47;27.00;;;;;;;;;;5094478;28;20318;-74
2021/10/10 03:20:37;;;;;;;37.80;27.38;;;;;;;;;;5094185;28;20199;-74
2021/10/10 03:23:05;;;;;;;36.13;25.92;;;;;;;;;;5094480;28;20277;-74
2021/10/10 03:25:32;;;;;;;37.78;26.98;;;;;;;;;;5094121;28;20203;-74
2021/10/10 03:28:00;;;;;;;38.40;27.50;;;;;;;;;;5094840;28;20222;-75
2021/10/10 03:30:27;;;;;;;39.15;26.08;;;;;;;;;;5094376;28;20200;-75
2021/10/10 03:32:54;;;;;;;36.33;26.60;;;;;;;;;;5094731;28;20697;-75
2021/10/10 03:35:21;;;;;;;37.40;26.23;;;;;;;;;;5093908;28;20281;-75
2021/10/10 03:37:49;;;;;;;40.55;27.55;;;;;;;;;;5094143;28;20246;-75
2021/10/10 03:40:18;;;;;;;37.53;24.52;;;;;;;;;;5093822;28;20191;-75
2021/10/10 03:42:45;;;;;;;36.72;26.73;;;;;;;;;;5093776;28;20655;-75
2021/10/10 03:45:12;;;;;;;34.28;26.45;;;;;;;;;;5094484;28;20559;-75
2021/10/10 03:47:41;;;;;;;35.60;26.42;;;;;;;;;;5094020;28;20295;-75
2021/10/10 03:50:08;;;;;;;39.47;25.38;;;;;;;;;;5094188;28;20200;-74
2021/10/10 03:52:36;;;;;;;33.58;25.58;;;;;;;;;;5094212;28;20205;-75
2021/10/10 03:57:52;;;;;;;34.60;24.40;;;;;;;;;;5088760;28;20222;-74
2021/10/10 04:00:19;;;;;;;30.35;25.08;;;;;;;;;;5093577;28;20231;-74
2021/10/10 04:02:46;;;;;;;32.05;25.20;;;;;;;;;;5093556;28;20239;-74
2021/10/10 04:05:20;;;;;;;35.47;25.13;;;;;;;;;;5093212;28;20197;-75
2021/10/10 04:07:47;;;;;;;39.05;26.05;;;;;;;;;;5094026;28;20291;-75
2021/10/10 04:10:15;;;;;;;32.92;25.42;;;;;;;;;;5094308;28;20227;-75
2021/10/10 04:12:42;;;;;;;39.28;25.60;;;;;;;;;;5093924;28;20595;-75
2021/10/10 04:15:12;;;;;;;32.92;25.17;;;;;;;;;;5093341;28;20222;-75
2021/10/10 04:17:40;;;;;;;41.95;27.10;;;;;;;;;;5094160;28;20298;-76
2021/10/10 04:20:08;;;;;;;39.78;25.50;;;;;;;;;;5093673;28;20199;-75
2021/10/10 04:22:35;;;;;;;33.55;24.88;;;;;;;;;;5094039;28;20531;-75
2021/10/10 04:25:02;;;;;;;31.48;25.15;;;;;;;;;;5094056;28;20194;-74
2021/10/10 04:27:32;;;;;;;38.78;24.25;;;;;;;;;;5093198;28;20203;-72
2021/10/10 04:29:59;;;;;;;30.60;24.00;;;;;;;;;;5093214;28;20737;-75
2021/10/10 04:32:28;;;;;;;33.60;24.23;;;;;;;;;;5093090;28;20197;-73
2021/10/10 04:34:55;;;;;;;35.45;24.30;;;;;;;;;;5093461;28;20286;-74
2021/10/10 04:37:22;;;;;;;31.75;23.88;;;;;;;;;;5093365;28;20218;-75
2021/10/10 04:39:49;;;;;;;33.92;24.02;;;;;;;;;;5093474;28;20578;-74
2021/10/10 04:42:16;;;;;;;40.13;26.23;;;;;;;;;;5093396;28;20194;-74
2021/10/10 04:44:44;;;;;;;32.28;24.40;;;;;;;;;;5093755;28;20282;-74
2021/10/10 04:47:11;;;;;;;36.10;23.80;;;;;;;;;;5093200;28;20562;-74
2021/10/10 04:49:39;;;;;;;42.33;26.70;;;;;;;;;;5093422;28;20194;-74
2021/10/10 04:52:07;;;;;;;37.13;25.88;;;;;;;;;;5092259;28;20280;-75
2021/10/10 04:54:34;;;;;;;39.50;26.73;;;;;;;;;;5092574;28;20205;-74
2021/10/10 04:57:02;;;;;;;37.88;24.42;;;;;;;;;;5092650;28;20216;-74
2021/10/10 04:59:29;;;;;;;35.35;25.88;;;;;;;;;;5092250;28;20200;-74
2021/10/10 05:01:56;;;;;;;34.60;24.55;;;;;;;;;;5092423;28;20197;-75
2021/10/10 05:04:23;;;;;;;32.97;24.95;;;;;;;;;;5092261;28;20235;-75
2021/10/10 05:06:52;;;;;;;36.88;23.70;;;;;;;;;;5092451;28;20738;-75
2021/10/10 05:09:19;;;;;;;32.63;25.63;;;;;;;;;;5093043;28;20199;-74
2021/10/10 05:11:46;;;;;;;34.00;24.38;;;;;;;;;;5092122;28;20291;-76
2021/10/10 05:14:14;;;;;;;31.88;22.70;;;;;;;;;;5092114;28;20296;-74
2021/10/10 05:16:41;;;;;;;36.08;25.15;;;;;;;;;;5095683;28;20288;-75
2021/10/10 05:19:08;;;;;;;34.83;23.23;;;;;;;;;;5096263;28;20195;-75
2021/10/10 05:21:35;;;;;;;41.95;24.00;;;;;;;;;;5096405;28;20200;-75
2021/10/10 05:24:04;;;;;;;32.80;24.92;;;;;;;;;;5095707;28;20202;-75
2021/10/10 05:26:31;;;;;;;31.08;23.85;;;;;;;;;;5095887;28;20243;-76
2021/10/10 05:28:58;;;;;;;38.17;24.30;;;;;;;;;;5095702;28;20263;-76
2021/10/10 05:31:25;;;;;;;40.53;24.90;;;;;;;;;;5096012;28;20296;-75
2021/10/10 05:33:53;;;;;;;37.08;27.92;;;;;;;;;;5095553;28;20597;-75
2021/10/10 05:36:20;;;;;;;39.55;26.38;;;;;;;;;;5095674;28;20200;-75
2021/10/10 05:38:47;;;;;;;38.45;27.13;;;;;;;;;;5095525;28;20218;-74
2021/10/10 05:41:16;;;;;;;37.85;26.50;;;;;;;;;;5095188;28;20251;-76
2021/10/10 05:43:43;;;;;;;41.53;26.02;;;;;;;;;;5095132;28;20340;-74
2021/10/10 05:46:10;;;;;;;35.95;27.00;;;;;;;;;;5095900;28;20224;-75
2021/10/10 05:48:37;;;;;;;34.88;26.17;;;;;;;;;;5094542;28;20649;-74
2021/10/10 05:51:04;;;;;;;32.83;24.85;;;;;;;;;;5095650;28;20200;-74
2021/10/10 05:53:32;;;;;;;34.05;25.92;;;;;;;;;;5094920;28;20225;-74
2021/10/10 05:56:00;;;;;;;34.85;25.77;;;;;;;;;;5094768;28;20280;-75
2021/10/10 05:58:32;;;;;;;36.80;26.80;;;;;;;;;;5095028;28;20625;-74
2021/10/10 06:00:59;;;;;;;43.42;28.23;;;;;;;;;;5094977;28;20229;-74
2021/10/10 06:03:26;;;;;;;35.47;27.20;;;;;;;;;;5095045;28;20325;-77
2021/10/10 06:05:54;;;;;;;37.30;26.75;;;;;;;;;;5094871;28;20194;-74
2021/10/10 06:08:21;;;;;;;42.53;26.65;;;;;;;;;;5095492;28;20238;-75
2021/10/10 06:10:48;;;;;;;38.47;26.67;;;;;;;;;;5094668;28;20226;-75
2021/10/10 06:13:15;;;;;;;38.35;26.25;;;;;;;;;;5094842;28;20285;-74
2021/10/10 06:15:47;;;;;;;44.22;27.10;;;;;;;;;;5095481;28;20629;-74
2021/10/10 06:18:14;;;;;;;37.20;25.42;;;;;;;;;;5094985;28;20269;-74
2021/10/10 06:20:41;;;;;;;41.38;27.27;;;;;;;;;;5094034;28;20204;-74
2021/10/10 06:23:09;;;;;;;35.28;25.48;;;;;;;;;;5094861;28;20207;-75
2021/10/10 06:25:37;;;;;;;40.20;25.13;;;;;;;;;;5094734;28;20616;-74
2021/10/10 06:28:04;;;;;;;41.08;25.63;;;;;;;;;;5095207;28;20197;-75
2021/10/10 06:30:31;;;;;;;41.03;28.85;;;;;;;;;;5094785;28;20684;-74
2021/10/10 06:33:00;;;;;;;41.30;28.05;;;;;;;;;;5094778;28;20191;-75
2021/10/10 06:35:27;;;;;;;38.53;26.98;;;;;;;;;;5094570;28;20226;-74
2021/10/10 06:37:54;;;;;;;42.28;28.45;;;;;;;;;;5094121;28;20623;-74
2021/10/10 06:40:22;;;;;;;38.20;29.38;;;;;;;;;;5094553;28;20280;-75
2021/10/10 06:42:49;;;;;;;40.30;28.10;;;;;;;;;;5092624;28;20286;-74
2021/10/10 06:45:16;;;;;;;42.28;27.27;;;;;;;;;;5094107;28;20286;-74
2021/10/10 06:47:43;;;;;;;36.25;27.33;;;;;;;;;;5094574;28;20616;-75
2021/10/10 06:50:12;;;;;;;40.28;27.02;;;;;;;;;;5094024;28;20298;-74
2021/10/10 06:52:40;;;;;;;37.20;27.10;;;;;;;;;;5093982;28;20198;-76
2021/10/10 06:55:07;;;;;;;40.85;28.77;;;;;;;;;;5093761;28;20203;-75
2021/10/10 06:57:34;;;;;;;38.90;25.40;;;;;;;;;;5093423;28;20214;-74
2021/10/10 07:00:02;;;;;;;37.33;27.55;;;;;;;;;;5093881;28;20543;-74
2021/10/10 07:02:29;;;;;;;34.17;26.25;;;;;;;;;;5093833;28;20221;-74
2021/10/10 07:04:56;;;;;;;36.83;25.83;;;;;;;;;;5093479;28;20290;-73
2021/10/10 07:07:25;;;;;;;33.67;25.02;;;;;;;;;;5093871;28;20704;-74
2021/10/10 07:09:53;;;;;;;36.78;24.55;;;;;;;;;;5094064;28;20666;-74
2021/10/10 07:12:20;;;;;;;37.15;23.90;;;;;;;;;;5093584;28;20204;-72
2021/10/10 07:14:50;;;;;;;39.72;27.08;;;;;;;;;;5093717;28;20553;-74
2021/10/10 07:17:17;;;;;;;35.47;25.85;;;;;;;;;;5093360;28;20204;-74
2021/10/10 07:19:49;;;;;;;28.42;23.83;;;;;;;;;;5093718;28;20199;-74
2021/10/10 07:22:27;;;;;;;34.05;27.00;;;;;;;;;;5093389;28;20632;-74
2021/10/10 07:25:04;;;;;;;33.80;24.38;;;;;;;;;;5093234;28;20218;-74
2021/10/10 07:27:31;;;;;;;34.60;26.77;;;;;;;;;;5093537;28;20650;-74
2021/10/10 07:29:58;;;;;;;36.08;25.33;;;;;;;;;;5093813;28;20619;-75
2021/10/10 07:32:26;;;;;;;32.97;25.17;;;;;;;;;;5093577;28;20210;-74
2021/10/10 07:34:53;;;;;;;31.88;21.67;;;;;;;;;;5093838;28;20229;-74
2021/10/10 07:37:20;;;;;;;32.60;24.55;;;;;;;;;;5093772;28;20194;-74
2021/10/10 07:39:47;;;;;;;33.95;23.58;;;;;;;;;;5093268;28;20306;-75
2021/10/10 07:42:16;;;;;;;33.15;24.05;;;;;;;;;;5093799;28;20235;-74
2021/10/10 07:44:46;;;;;;;33.50;25.38;;;;;;;;;;5094738;28;20283;-74
2021/10/10 07:47:18;;;;;;;41.00;25.73;;;;;;;;;;5094228;28;20205;-74
2021/10/10 07:49:48;;;;;;;34.17;25.55;;;;;;;;;;5093725;28;20216;-74
2021/10/10 07:52:15;;;;;;;32.97;23.95;;;;;;;;;;5094089;28;20676;-74
2021/10/10 07:54:43;;;;;;;32.57;22.73;;;;;;;;;;5094944;28;20251;-74
2021/10/10 07:57:10;;;;;;;31.10;23.10;;;;;;;;;;5094108;28;20795;-74
2021/10/10 07:59:39;;;;;;;29.45;21.65;;;;;;;;;;5093756;28;20752;-74
2021/10/10 08:02:06;;;;;;;32.80;22.50;;;;;;;;;;5093732;28;20240;-74
2021/10/10 08:04:33;;;;;;;32.45;22.23;;;;;;;;;;5094217;28;20495;-74
2021/10/10 08:07:00;;;;;;;30.25;21.80;;;;;;;;;;5093279;28;20191;-74
2021/10/10 08:09:27;;;;;;;34.50;23.35;;;;;;;;;;5094216;28;20197;-74
2021/10/10 08:11:55;;;;;;;36.97;23.70;;;;;;;;;;5093677;28;20276;-74
2021/10/10 08:14:22;;;;;;;30.58;22.45;;;;;;;;;;5093636;28;20652;-74
2021/10/10 08:16:52;;;;;;;28.35;22.02;;;;;;;;;;5093554;28;20201;-74
2021/10/10 08:19:19;;;;;;;28.70;19.60;;;;;;;;;;5093133;28;20312;-74
2021/10/10 08:21:48;;;;;;;28.43;19.67;;;;;;;;;;5093524;28;20559;-74
2021/10/10 08:24:18;;;;;;;31.05;20.75;;;;;;;;;;5093457;28;20439;-74
2021/10/10 08:26:46;;;;;;;24.52;18.83;;;;;;;;;;5093452;28;20195;-74
2021/10/10 08:29:13;;;;;;;26.10;16.73;;;;;;;;;;5093464;28;20197;-74
2021/10/10 08:31:40;;;;;;;28.10;18.77;;;;;;;;;;5093018;28;20533;-74
2021/10/10 08:34:09;;;;;;;25.00;18.20;;;;;;;;;;5093409;28;20242;-74
2021/10/10 08:36:36;;;;;;;23.23;17.20;;;;;;;;;;5093108;28;20471;-74
2021/10/10 08:39:04;;;;;;;21.27;16.67;;;;;;;;;;5093373;28;20471;-74
2021/10/10 08:41:34;;;;;;;20.38;16.35;;;;;;;;;;5093567;28;20554;-74
2021/10/10 08:44:03;;;;;;;20.80;16.20;;;;;;;;;;5093335;28;20202;-74
2021/10/10 08:46:35;;;;;;;25.63;17.85;;;;;;;;;;5093006;28;20488;-74
2021/10/10 08:49:02;;;;;;;20.77;15.10;;;;;;;;;;5093528;28;20189;-75
2021/10/10 08:51:35;;;;;;;23.43;16.70;;;;;;;;;;5096443;28;20802;-74
2021/10/10 08:54:03;;;;;;;24.67;14.77;;;;;;;;;;5097462;28;20455;-74
2021/10/10 08:56:30;;;;;;;25.50;18.20;;;;;;;;;;5097278;28;20524;-74
2021/10/10 08:58:57;;;;;;;21.00;15.63;;;;;;;;;;5097516;28;20507;-74
2021/10/10 09:01:31;;;;;;;20.33;15.50;;;;;;;;;;5097339;28;20463;-74
2021/10/10 09:03:58;;;;;;;20.30;15.73;;;;;;;;;;5097404;28;20501;-74
2021/10/10 09:06:26;;;;;;;18.93;14.10;;;;;;;;;;5097069;28;20847;-75
2021/10/10 09:08:55;;;;;;;17.37;14.50;;;;;;;;;;5097023;28;20434;-76
2021/10/10 09:11:22;;;;;;;28.90;19.70;;;;;;;;;;5097295;28;20490;-73
2021/10/10 09:14:01;;;;;;;24.20;18.27;;;;;;;;;;5096532;28;20814;-71
2021/10/10 09:16:35;;;;;;;30.27;16.40;;;;;;;;;;5097290;28;20432;-74
2021/10/10 09:19:22;;;;;;;20.73;16.17;;;;;;;;;;5097070;28;20471;-71
2021/10/10 09:21:59;;;;;;;22.13;15.10;;;;;;;;;;5096574;28;20870;-73
2021/10/10 09:24:29;;;;;;;20.77;13.60;;;;;;;;;;5094859;28;20517;-74
2021/10/10 09:26:56;;;;;;;16.27;13.90;;;;;;;;;;5074428;28;20523;-73
2021/10/10 09:29:33;;;;;;;20.83;15.27;;;;;;;;;;5074550;28;20440;-73
2021/10/10 09:32:04;;;;;;;18.20;13.50;;;;;;;;;;5075207;28;20450;-73
2021/10/10 09:34:31;;;;;;;18.87;12.97;;;;;;;;;;5074944;28;20958;-73
2021/10/10 09:37:00;;;;;;;15.53;13.00;;;;;;;;;;5074992;28;20448;-73
2021/10/10 09:39:38;;;;;;;15.07;13.40;;;;;;;;;;5074994;28;20481;-73
2021/10/10 09:42:05;;;;;;;19.47;14.60;;;;;;;;;;5075057;28;20447;-73
2021/10/10 09:44:44;;;;;;;16.60;14.20;;;;;;;;;;5074874;28;20440;-72
2021/10/10 09:47:13;;;;;;;15.90;12.60;;;;;;;;;;5075029;28;20448;-73
2021/10/10 09:49:40;;;;;;;15.27;13.43;;;;;;;;;;5074995;28;20444;-73
2021/10/10 09:52:12;;;;;;;16.57;13.70;;;;;;;;;;5075324;28;20473;-73
2021/10/10 09:54:49;;;;;;;16.83;12.20;;;;;;;;;;5077740;28;20511;-72
2021/10/10 09:57:16;;;;;;;13.83;11.50;;;;;;;;;;5095493;28;20431;-74
2021/10/10 09:59:44;;;;;;;16.00;11.93;;;;;;;;;;5095148;28;20478;-73
2021/10/10 10:02:11;;;;;;;14.43;11.77;;;;;;;;;;5093905;28;20526;-73
2021/10/10 10:04:48;;;;;;;16.30;12.00;;;;;;;;;;5094735;28;20472;-73
2021/10/10 10:07:19;;;;;;;14.90;13.40;;;;;;;;;;5094575;28;20447;-73
2021/10/10 10:09:50;;;;;;;14.97;11.63;;;;;;;;;;5095209;28;20455;-73
2021/10/10 10:12:19;;;;;;;18.27;12.57;;;;;;;;;;5095012;28;20773;-74
2021/10/10 10:14:50;;;;;;;16.50;12.73;;;;;;;;;;5095211;28;20428;-73
2021/10/10 10:17:19;;;;;;;16.47;11.83;;;;;;;;;;5094326;28;20463;-73
2021/10/10 10:19:46;;;;;;;16.23;13.13;;;;;;;;;;5094626;28;20483;-74
2021/10/10 10:22:15;;;;;;;18.80;14.00;;;;;;;;;;5094083;28;20444;-73
2021/10/10 10:24:45;;;;;;;16.47;13.80;;;;;;;;;;5093957;28;20431;-73
2021/10/10 10:27:12;;;;;;;20.80;15.53;;;;;;;;;;5094213;28;20439;-73
2021/10/10 10:29:43;;;;;;;16.97;14.07;;;;;;;;;;5094873;28;20512;-73
2021/10/10 10:32:10;;;;;;;20.77;14.40;;;;;;;;;;5094122;28;20450;-74
2021/10/10 10:34:38;;;;;;;18.70;13.67;;;;;;;;;;5094340;28;20610;-73
2021/10/10 10:37:05;;;;;;;17.60;12.67;;;;;;;;;;5094160;28;20858;-73
2021/10/10 10:39:37;;;;;;;18.27;15.03;;;;;;;;;;5094413;28;20480;-73
2021/10/10 10:42:05;;;;;;;18.57;13.80;;;;;;;;;;5094098;28;20443;-74
2021/10/10 10:44:44;;;;;;;18.93;14.03;;;;;;;;;;5094966;28;20444;-75
2021/10/10 10:47:13;;;;;;;20.33;13.97;;;;;;;;;;5093844;28;20433;-75
2021/10/10 10:50:08;;;;;;;18.83;14.60;;;;;;;;;;5093715;28;20432;-73
2021/10/10 10:52:36;;;;;;;23.27;14.07;;;;;;;;;;5093557;28;20420;-73
2021/10/10 10:55:27;;;;;;;17.10;13.90;;;;;;;;;;5093273;28;20447;-73
2021/10/10 10:57:55;;;;;;;18.70;14.93;;;;;;;;;;5078812;28;20540;-72
2021/10/10 11:00:25;;;;;;;19.93;14.63;;;;;;;;;;5094908;28;20527;-73
2021/10/10 11:02:53;;;;;;;21.30;14.00;;;;;;;;;;5093340;28;20801;-73
2021/10/10 11:05:33;;;;;;;16.50;14.20;;;;;;;;;;5093184;28;20551;-73
2021/10/10 11:08:01;;;;;;;16.47;14.40;;;;;;;;;;5094845;28;20515;-73
2021/10/10 11:10:28;;;;;;;18.40;14.47;;;;;;;;;;5094199;28;20460;-75
2021/10/10 11:12:58;;;;;;;22.73;15.97;;;;;;;;;;5094072;28;20527;-74
2021/10/10 11:15:27;;;;;;;15.97;14.13;;;;;;;;;;5093390;28;20475;-74
2021/10/10 11:17:55;;;;;;;18.10;14.90;;;;;;;;;;5093902;28;20436;-73
2021/10/10 11:20:22;;;;;;;17.10;13.60;;;;;;;;;;5093426;28;20477;-73
2021/10/10 11:22:50;;;;;;;16.90;14.80;;;;;;;;;;5093293;28;20526;-73
2021/10/10 11:25:17;;;;;;;16.47;13.87;;;;;;;;;;5093273;28;21005;-73
2021/10/10 11:27:44;;;;;;;21.00;14.67;;;;;;;;;;5094258;28;20444;-73
2021/10/10 11:30:13;;;;;;;27.37;16.13;;;;;;;;;;5093483;28;20452;-72
2021/10/10 11:32:56;;;;;;;20.60;14.90;;;;;;;;;;5092930;28;20452;-73
2021/10/10 11:35:24;;;;;;;22.53;15.27;;;;;;;;;;5091889;28;20448;-73
2021/10/10 11:38:04;;;;;;;20.07;15.80;;;;;;;;;;5091980;28;20939;-73
2021/10/10 11:40:31;;;;;;;20.30;15.30;;;;;;;;;;5093533;28;20556;-72
2021/10/10 11:42:59;;;;;;;18.23;15.37;;;;;;;;;;5092305;28;20450;-73
2021/10/10 11:45:28;;;;;;;21.90;15.70;;;;;;;;;;5093190;28;20444;-72
2021/10/10 11:47:57;;;;;;;22.90;16.80;;;;;;;;;;5093112;28;20437;-73
2021/10/10 11:50:24;;;;;;;20.50;15.97;;;;;;;;;;5092545;28;20451;-73
2021/10/10 11:52:58;;;;;;;20.87;17.07;;;;;;;;;;5092617;28;20973;-72
2021/10/10 11:55:32;;;;;;;20.60;15.87;;;;;;;;;;5092586;28;20464;-72
2021/10/10 11:58:01;;;;;;;18.30;15.17;;;;;;;;;;5093217;28;20768;-72
2021/10/10 12:00:29;;;;;;;22.37;16.40;;;;;;;;;;5092879;28;20481;-72
2021/10/10 12:03:04;;;;;;;17.33;13.70;;;;;;;;;;5090844;28;20563;-73
2021/10/10 12:05:39;;;;;;;23.83;17.20;;;;;;;;;;5093246;28;20649;-73
2021/10/10 12:08:16;;;;;;;20.93;15.37;;;;;;;;;;5093508;28;20517;-73
2021/10/10 12:10:48;;;;;;;19.17;16.77;;;;;;;;;;5092937;28;20441;-73
2021/10/10 12:13:15;;;;;;;17.07;14.43;;;;;;;;;;5093130;28;20513;-74
2021/10/10 12:15:42;;;;;;;24.30;15.63;;;;;;;;;;5093184;28;20441;-76
2021/10/10 12:18:14;;;;;;;23.13;15.00;;;;;;;;;;5093318;28;20441;-76
2021/10/10 12:20:42;;;;;;;19.97;14.30;;;;;;;;;;5093456;28;20506;-76
2021/10/10 12:23:10;;;;;;;18.73;15.53;;;;;;;;;;5093462;28;20459;-77
2021/10/10 12:25:38;;;;;;;19.73;14.73;;;;;;;;;;5092922;28;20781;-76
2021/10/10 12:28:06;;;;;;;18.17;15.23;;;;;;;;;;5093529;28;20452;-77
2021/10/10 12:30:36;;;;;;;19.17;14.60;;;;;;;;;;5093421;28;20448;-77
2021/10/10 12:33:18;;;;;;;21.03;16.07;;;;;;;;;;5093619;28;20443;-77
2021/10/10 12:35:54;;;;;;;21.63;13.30;;;;;;;;;;5093362;28;20442;-77
2021/10/10 12:38:28;;;;;;;19.63;14.23;;;;;;;;;;5093651;28;20430;-76
2021/10/10 12:40:56;;;;;;;18.60;14.40;;;;;;;;;;5093410;28;20470;-76
2021/10/10 12:43:33;;;;;;;16.83;14.90;;;;;;;;;;5093195;28;20937;-76
2021/10/10 12:46:02;;;;;;;17.13;13.93;;;;;;;;;;5093704;28;20858;-76
2021/10/10 12:48:29;;;;;;;16.57;14.70;;;;;;;;;;5093228;28;20440;-76
2021/10/10 12:51:00;;;;;;;21.13;14.20;;;;;;;;;;5093286;28;20520;-76
2021/10/10 12:53:28;;;;;;;21.03;15.70;;;;;;;;;;5094010;28;20433;-76
2021/10/10 12:56:15;;;;;;;21.77;14.70;;;;;;;;;;5093666;28;20530;-76
2021/10/10 12:58:48;;;;;;;15.40;12.67;;;;;;;;;;5093114;28;20463;-76
2021/10/10 13:01:15;;;;;;;18.37;13.27;;;;;;;;;;5093648;28;20473;-77
2021/10/10 13:03:43;;;;;;;16.40;13.27;;;;;;;;;;5093134;28;20572;-77
2021/10/10 13:06:11;;;;;;;23.23;13.80;;;;;;;;;;5093459;28;20769;-76
2021/10/10 13:08:48;;;;;;;19.27;13.47;;;;;;;;;;5093019;28;20712;-76
2021/10/10 13:11:15;;;;;;;15.10;13.50;;;;;;;;;;5092925;28;20447;-76
2021/10/10 13:13:43;;;;;;;19.30;12.77;;;;;;;;;;5092693;28;20449;-76
2021/10/10 13:16:10;;;;;;;18.43;14.37;;;;;;;;;;5092887;28;20449;-75
2021/10/10 13:18:37;;;;;;;18.87;14.37;;;;;;;;;;5092954;28;20442;-76
2021/10/10 13:21:04;;;;;;;15.87;13.83;;;;;;;;;;5092518;28;21005;-76
2021/10/10 13:23:33;;;;;;;18.07;13.20;;;;;;;;;;5092930;28;20444;-76
2021/10/10 13:26:00;;;;;;;14.97;13.33;;;;;;;;;;5092453;28;20446;-76
2021/10/10 13:28:27;;;;;;;20.50;15.67;;;;;;;;;;5092886;28;20527;-76
2021/10/10 13:30:59;;;;;;;18.60;14.77;;;;;;;;;;5092624;28;20439;-77
2021/10/10 13:33:26;;;;;;;19.03;14.70;;;;;;;;;;5093438;28;20464;-77
2021/10/10 13:35:53;;;;;;;17.93;14.40;;;;;;;;;;5092390;28;20520;-81
2021/10/10 13:38:22;;;;;;;16.83;14.77;;;;;;;;;;5094894;28;20446;-77
2021/10/10 13:40:51;;;;;;;18.27;15.20;;;;;;;;;;5095802;28;20480;-74
2021/10/10 13:43:18;;;;;;;20.07;15.53;;;;;;;;;;5096169;28;20456;-74
2021/10/10 13:45:46;;;;;;;20.03;13.97;;;;;;;;;;5096210;28;20439;-76
2021/10/10 13:48:14;;;;;;;17.70;15.30;;;;;;;;;;5096229;28;20457;-74
2021/10/10 13:50:41;;;;;;;22.80;16.60;;;;;;;;;;5095791;28;20961;-74
2021/10/10 13:53:08;;;;;;;17.67;15.60;;;;;;;;;;5095895;28;20531;-75
2021/10/10 13:55:35;;;;;;;18.00;14.83;;;;;;;;;;5094670;28;20518;-75
2021/10/10 13:58:04;;;;;;;18.13;13.40;;;;;;;;;;5094619;28;20453;-74
2021/10/10 14:00:31;;;;;;;19.13;14.80;;;;;;;;;;5094677;28;20823;-74
2021/10/10 14:02:59;;;;;;;22.50;17.10;;;;;;;;;;5095537;28;20573;-74
2021/10/10 14:05:28;;;;;;;17.97;14.70;;;;;;;;;;5095053;28;20517;-75
2021/10/10 14:07:55;;;;;;;18.00;14.00;;;;;;;;;;5094438;28;20449;-74
2021/10/10 14:10:23;;;;;;;18.07;13.27;;;;;;;;;;5094353;28;20917;-78
2021/10/10 14:12:50;;;;;;;19.50;13.43;;;;;;;;;;5094450;28;20442;-76
2021/10/10 14:15:18;;;;;;;18.57;14.03;;;;;;;;;;5095176;28;20446;-74
2021/10/10 14:17:46;;;;;;;18.17;14.40;;;;;;;;;;5094363;28;20526;-76
2021/10/10 14:20:13;;;;;;;20.13;13.17;;;;;;;;;;5094256;28;20887;-74
2021/10/10 14:22:40;;;;;;;22.07;13.97;;;;;;;;;;5094690;28;20450;-74
2021/10/10 14:25:07;;;;;;;16.43;13.80;;;;;;;;;;5094312;28;20453;-75
2021/10/10 14:27:36;;;;;;;16.60;14.20;;;;;;;;;;5094443;28;20454;-75